Hlavní strana
METAR-TAF:

METAR-TAF

Letiště :

Huntsville, Alabama, Spojené státy americké

zeměpisná šířka: 34-38-37N, zeměpisná délka: 086-47-08W, výška: 192 m

Aktuální stav počasí

Zpráva byla vytvořena před 34 minutami, v 16:53 UTC
Severní vítr 12 kt
Teplota 9°C
Vlhkost vzduchu 43%
Tlak 1025 hPa
Viditelnost: 16.1 km
Oblačno až skoro zataženo ve výšce 14000 ft
Oblačno až skoro zataženo ve výšce 25000 ft

METAR: KHSV 151653Z 01012KT 10SM BKN140 BKN250 09/M03 A3026 RMK AO2 SLP247 T00891028 $

Čas: 11:27 (17:27 UTC)

Předpověď počasí

Zpráva byla vytvořena před 5 hodinami a 37 minutami, v 11:50 UTC
Předpověď platná od 15 v 12 UTC do 16 v 12 UTC
Severní vítr 7 kt
Viditelnost: 10 km
Oblačno až skoro zataženo ve výšce 10000 ft
Od 15 v 1400 UTC
Severní vítr 12 kt
Viditelnost: 10 km
Polojasno ve výšce 25000 ft
Od 16 v 0200 UTC
Severní vítr 6 kt
Viditelnost: 10 km
Jasno

TAF: KHSV 151150Z 1512/1612 35007KT P6SM BKN100 FM151400 36012KT P6SM SCT250 FM160200 01006KT P6SM SKC

Stav a předpovědi počasí z více než 4 000 letišť (zprávy METAR a TAF).

Červené a žluté tečky na mapě představují dostupné meteorologické stanice.

Když kurzor umístíte na tečku, zobrazí se název stanice.

Pak kliknutím zobrazíte stav a předpověď počasí.

Chcete-li změnit mapu, kliknutím na zelené tlačítko se znaménkem +mapu přiblížíte, kliknutím na zelené tlačítko se znaménkem – mapu oddálíte a kliknutím na zelené šipky přejdete na sousední mapy.


METAR-TAF: